createdAt,value
2018-12-28T00:00:27.955Z,101821.52
2018-12-28T00:03:35.198Z,101818.53
2018-12-28T00:06:42.498Z,101818.09
2018-12-28T00:09:49.728Z,101822.36
2018-12-28T00:12:57.059Z,101812.59
2018-12-28T00:16:03.877Z,101813.87
2018-12-28T00:19:11.012Z,101813.00
2018-12-28T00:22:18.357Z,101808.33
2018-12-28T00:25:25.682Z,101809.17
2018-12-28T00:28:33.112Z,101815.12
2018-12-28T00:31:40.404Z,101812.98
2018-12-28T00:34:47.722Z,101814.25
2018-12-28T00:37:54.967Z,101818.08
2018-12-28T00:41:02.290Z,101820.61
2018-12-28T00:44:09.434Z,101818.05
2018-12-28T00:47:16.738Z,101821.88
2018-12-28T00:50:23.969Z,101821.88
2018-12-28T00:53:31.177Z,101823.56
2018-12-28T00:56:38.500Z,101827.80
2018-12-28T00:59:55.335Z,101819.66
2018-12-28T01:03:02.471Z,101818.44
2018-12-28T01:06:19.523Z,101818.39
2018-12-28T01:09:27.704Z,101825.69
2018-12-28T01:12:34.895Z,101820.15
2018-12-28T01:15:42.130Z,101823.11
2018-12-28T01:18:47.741Z,101828.64
2018-12-28T01:21:54.989Z,101824.38
2018-12-28T01:25:02.358Z,101827.38
2018-12-28T01:28:09.580Z,101832.45
2018-12-28T01:31:17.056Z,101835.44
2018-12-28T01:34:23.535Z,101840.95
2018-12-28T01:37:30.573Z,101846.05
2018-12-28T01:40:37.059Z,101846.03
2018-12-28T01:43:45.502Z,101847.30
2018-12-28T01:46:52.154Z,101846.87
2018-12-28T01:49:58.628Z,101850.70
2018-12-28T01:53:05.112Z,101851.14
2018-12-28T01:56:12.423Z,101855.41
2018-12-28T01:59:19.628Z,101847.75
2018-12-28T02:02:26.867Z,101854.53
2018-12-28T02:05:34.169Z,101851.55
2018-12-28T02:08:41.472Z,101852.37
2018-12-28T02:11:48.607Z,101862.60
2018-12-28T02:14:55.842Z,101858.77
2018-12-28T02:18:03.513Z,101862.58
2018-12-28T02:21:11.703Z,101859.59
2018-12-28T02:24:19.463Z,101859.16
2018-12-28T02:27:26.938Z,101857.04
2018-12-28T02:30:49.543Z,101852.34
2018-12-28T02:33:56.755Z,101857.45
2018-12-28T02:37:04.061Z,101856.60
2018-12-28T02:40:11.379Z,101854.03
2018-12-28T02:43:28.342Z,101858.22
2018-12-28T02:46:35.640Z,101859.55
2018-12-28T02:49:52.787Z,101855.23
2018-12-28T02:53:09.650Z,101853.96
2018-12-28T02:56:26.297Z,101853.53
2018-12-28T02:59:33.526Z,101857.81
2018-12-28T03:02:40.754Z,101868.02
2018-12-28T03:05:48.000Z,101850.99
2018-12-28T03:08:56.131Z,101856.09
2018-12-28T03:12:02.547Z,101846.73
2018-12-28T03:15:19.259Z,101840.30
2018-12-28T03:18:26.045Z,101848.45
2018-12-28T03:21:33.274Z,101846.73
2018-12-28T03:24:41.497Z,101851.81
2018-12-28T03:27:48.725Z,101851.81
2018-12-28T03:30:55.965Z,101847.13
2018-12-28T03:34:03.896Z,101858.20
2018-12-28T03:37:10.384Z,101849.27
2018-12-28T03:40:16.867Z,101850.54
2018-12-28T03:43:24.013Z,101844.13
2018-12-28T03:46:41.069Z,101841.07
2018-12-28T03:49:58.230Z,101841.50
2018-12-28T03:53:05.839Z,101848.40
2018-12-28T03:56:13.911Z,101849.21
2018-12-28T03:59:21.115Z,101846.66
2018-12-28T04:02:27.524Z,101850.49
2018-12-28T04:05:34.837Z,101858.56
2018-12-28T04:08:42.160Z,101853.48
2018-12-28T04:11:49.590Z,101861.95
2018-12-28T04:14:56.878Z,101859.84
2018-12-28T04:18:04.217Z,101862.82
2018-12-28T04:21:21.354Z,101854.25
2018-12-28T04:24:38.156Z,101855.93
2018-12-28T04:27:45.384Z,101862.39
2018-12-28T04:31:02.273Z,101864.03
2018-12-28T04:34:09.577Z,101865.34
2018-12-28T04:37:26.409Z,101869.98
2018-12-28T04:40:33.640Z,101866.63
2018-12-28T04:43:40.915Z,101863.64
2018-12-28T04:46:48.057Z,101872.55
2018-12-28T04:49:55.296Z,101866.63
2018-12-28T04:53:12.204Z,101869.11
2018-12-28T04:56:20.718Z,101874.23
2018-12-28T04:59:28.442Z,101870.84
2018-12-28T05:03:06.536Z,101861.86
2018-12-28T05:07:01.134Z,101873.40
2018-12-28T05:10:44.887Z,101868.24
2018-12-28T05:14:10.190Z,101873.39
2018-12-28T05:18:05.821Z,101864.41
2018-12-28T05:21:37.633Z,101865.30
2018-12-28T05:24:59.613Z,101867.42
2018-12-28T05:29:09.796Z,101868.30
2018-12-28T05:32:28.751Z,101865.73
2018-12-28T05:35:35.963Z,101874.23
2018-12-28T05:38:43.378Z,101878.91
2018-12-28T05:41:50.750Z,101881.47
2018-12-28T05:45:07.894Z,101886.95
2018-12-28T05:48:15.032Z,101883.59
2018-12-28T05:51:21.819Z,101892.11
2018-12-28T05:54:29.628Z,101890.00
2018-12-28T05:57:36.117Z,101897.22
2018-12-28T06:00:53.542Z,101896.73
2018-12-28T06:04:01.560Z,101900.61
2018-12-28T06:07:09.166Z,101904.45
2018-12-28T06:10:14.771Z,101912.09
2018-12-28T06:13:22.181Z,101916.80
2018-12-28T06:16:29.478Z,101917.63
2018-12-28T06:19:36.611Z,101919.75
2018-12-28T06:22:43.895Z,101923.59
2018-12-28T06:25:51.486Z,101920.63
2018-12-28T06:28:59.197Z,101927.86
2018-12-28T06:32:06.400Z,101932.12
2018-12-28T06:35:13.706Z,101932.52
2018-12-28T06:38:20.946Z,101943.17
2018-12-28T06:41:28.261Z,101943.61
2018-12-28T06:44:35.565Z,101944.86
2018-12-28T06:47:42.939Z,101945.27
2018-12-28T06:50:50.142Z,101939.32
2018-12-28T06:54:34.705Z,101941.44
2018-12-28T06:58:33.354Z,101938.41
2018-12-28T07:02:31.878Z,101951.56
2018-12-28T07:06:27.574Z,101951.15
2018-12-28T07:10:13.392Z,101956.73
2018-12-28T07:13:57.221Z,101964.40
2018-12-28T07:17:52.037Z,101954.11
2018-12-28T07:21:42.193Z,101961.41
2018-12-28T07:25:25.512Z,101962.66
2018-12-28T07:29:19.556Z,101962.25
2018-12-28T07:33:32.764Z,101966.49
2018-12-28T07:37:17.689Z,101965.22
2018-12-28T07:40:41.428Z,101962.25
2018-12-28T07:44:32.339Z,101963.09
2018-12-28T07:48:10.873Z,101966.02
2018-12-28T07:51:58.632Z,101970.73
2018-12-28T07:55:31.026Z,101976.69
2018-12-28T07:59:20.621Z,101981.36
2018-12-28T08:03:09.208Z,101970.67
2018-12-28T08:06:37.685Z,101980.49
2018-12-28T08:10:28.121Z,101983.91
2018-12-28T08:14:28.957Z,101989.86
2018-12-28T08:18:01.759Z,101992.83
2018-12-28T08:21:39.900Z,101987.72
2018-12-28T08:25:39.069Z,101981.30
2018-12-28T08:29:16.558Z,101983.05
2018-12-28T08:33:23.167Z,101985.17
2018-12-28T08:37:04.526Z,101994.94
2018-12-28T08:41:11.504Z,101998.36
2018-12-28T08:44:46.082Z,101995.80
2018-12-28T08:48:46.920Z,102003.44
2018-12-28T08:52:38.761Z,102003.88
2018-12-28T08:56:16.578Z,102002.16
2018-12-28T09:00:12.955Z,102011.88
2018-12-28T09:04:00.417Z,102012.78
2018-12-28T09:07:54.557Z,102017.88
2018-12-28T09:11:43.220Z,102025.91
2018-12-28T09:15:40.195Z,102029.30
2018-12-28T09:19:38.384Z,102032.70
2018-12-28T09:23:33.235Z,102044.23
2018-12-28T09:27:38.219Z,102045.08
2018-12-28T09:31:22.551Z,102045.92
2018-12-28T09:35:31.285Z,102043.36
2018-12-28T09:39:27.925Z,102043.36
2018-12-28T09:43:04.937Z,102053.56
2018-12-28T09:46:59.446Z,102057.41
2018-12-28T09:50:41.066Z,102062.92
2018-12-28T09:53:56.762Z,102057.81
2018-12-28T09:57:42.012Z,102054.84
2018-12-28T10:01:20.455Z,102062.01
2018-12-28T10:05:18.385Z,102071.84
2018-12-28T10:09:08.830Z,102066.75
2018-12-28T10:12:35.611Z,102068.03
2018-12-28T10:15:54.822Z,102063.78
2018-12-28T10:19:02.304Z,102068.45
2018-12-28T10:22:21.096Z,102070.56
2018-12-28T10:25:28.916Z,102068.88
2018-12-28T10:28:36.150Z,102072.28
2018-12-28T10:31:44.295Z,102075.27
2018-12-28T10:34:52.143Z,102071.44
2018-12-28T10:37:59.291Z,102071.03
2018-12-28T10:41:06.588Z,102064.23
2018-12-28T10:44:13.879Z,102064.66
2018-12-28T10:47:21.044Z,102064.64
2018-12-28T10:50:28.344Z,102065.94
2018-12-28T10:53:35.608Z,102062.56
2018-12-28T10:56:43.183Z,102068.52
2018-12-28T11:00:00.036Z,102062.52
2018-12-28T11:03:17.146Z,102059.55
2018-12-28T11:06:39.697Z,102059.55
2018-12-28T11:09:56.651Z,102059.55
2018-12-28T11:13:13.550Z,102053.17
2018-12-28T11:16:20.988Z,102063.00
2018-12-28T11:19:37.736Z,102059.95
2018-12-28T11:22:54.606Z,102057.41
2018-12-28T11:26:04.038Z,102064.69
2018-12-28T11:29:11.321Z,102063.84
2018-12-28T11:32:18.541Z,102062.11
2018-12-28T11:35:24.168Z,102059.98
2018-12-28T11:38:31.641Z,102054.45
2018-12-28T11:41:38.872Z,102053.17
2018-12-28T11:44:46.069Z,102056.14
2018-12-28T11:47:54.454Z,102054.45
2018-12-28T11:51:02.110Z,102065.51
2018-12-28T11:54:09.454Z,102057.41
2018-12-28T11:57:16.781Z,102056.55
2018-12-28T12:00:24.107Z,102059.97
2018-12-28T12:03:31.230Z,102055.68
2018-12-28T12:06:38.473Z,102058.67
2018-12-28T12:09:45.602Z,102060.79
2018-12-28T12:12:52.838Z,102067.19
2018-12-28T12:16:00.148Z,102068.03
2018-12-28T12:19:07.371Z,102076.95
2018-12-28T12:22:14.610Z,102080.78
2018-12-28T12:25:21.812Z,102085.45
2018-12-28T12:28:29.054Z,102084.16
2018-12-28T12:31:36.282Z,102094.37
2018-12-28T12:34:53.357Z,102090.05
2018-12-28T12:38:11.554Z,102087.92
2018-12-28T12:41:18.683Z,102093.08
2018-12-28T12:44:25.816Z,102101.58
2018-12-28T12:47:33.153Z,102098.19
2018-12-28T12:50:40.357Z,102096.04
2018-12-28T12:53:47.593Z,102100.72
2018-12-28T12:56:54.729Z,102102.86
2018-12-28T13:00:11.829Z,102100.27
2018-12-28T13:03:18.955Z,102105.39
2018-12-28T13:06:26.091Z,102109.22
2018-12-28T13:09:42.999Z,102098.55
2018-12-28T13:12:50.148Z,102099.42
2018-12-28T13:15:57.371Z,102102.38
2018-12-28T13:19:04.575Z,102100.27
2018-12-28T13:22:12.078Z,102110.49
2018-12-28T13:25:28.724Z,102100.20
2018-12-28T13:28:36.253Z,102104.94
2018-12-28T13:31:54.419Z,102105.31
2018-12-28T13:35:11.275Z,102103.20
2018-12-28T13:38:18.593Z,102109.21
2018-12-28T13:41:35.417Z,102111.27
2018-12-28T13:44:42.563Z,102116.02
2018-12-28T13:47:49.795Z,102115.58
2018-12-28T13:51:06.806Z,102107.85
2018-12-28T13:54:13.948Z,102115.98
2018-12-28T13:57:21.270Z,102115.15
2018-12-28T14:00:29.017Z,102113.44
2018-12-28T14:03:36.354Z,102124.50
2018-12-28T14:06:43.647Z,102123.66
2018-12-28T14:09:50.879Z,102127.05
2018-12-28T14:12:58.089Z,102122.81
2018-12-28T14:16:05.432Z,102125.78
2018-12-28T14:19:12.663Z,102121.53
2018-12-28T14:22:18.188Z,102131.75
2018-12-28T14:25:25.515Z,102124.52
2018-12-28T14:28:32.845Z,102124.52
2018-12-28T14:31:41.041Z,102128.35
2018-12-28T14:34:50.648Z,102128.78
2018-12-28T14:37:57.789Z,102127.94
2018-12-28T14:41:05.167Z,102136.45
2018-12-28T14:44:12.333Z,102144.55
2018-12-28T14:47:20.734Z,102147.09
2018-12-28T14:50:27.926Z,102147.53
2018-12-28T14:53:35.057Z,102146.69
2018-12-28T14:56:42.382Z,102157.73
2018-12-28T14:59:49.692Z,102156.03
2018-12-28T15:02:57.376Z,102156.46
2018-12-28T15:06:14.438Z,102158.98
2018-12-28T15:09:20.331Z,102164.14
2018-12-28T15:12:27.557Z,102159.91
2018-12-28T15:15:39.699Z,102167.56
2018-12-28T15:18:46.824Z,102166.31
2018-12-28T15:21:54.495Z,102179.92
2018-12-28T15:25:01.650Z,102176.95
2018-12-28T15:28:07.276Z,102177.39
2018-12-28T15:31:14.577Z,102179.53
2018-12-28T15:34:31.808Z,102182.89
2018-12-28T15:37:38.009Z,102176.13
2018-12-28T15:40:45.515Z,102181.67
2018-12-28T15:43:52.640Z,102185.94
2018-12-28T15:46:59.869Z,102188.48
2018-12-28T15:50:06.609Z,102187.66
2018-12-28T15:53:23.229Z,102188.88
2018-12-28T15:56:40.368Z,102191.02
2018-12-28T15:59:57.067Z,102189.31
2018-12-28T16:03:04.214Z,102187.66
2018-12-28T16:08:10.691Z,102188.08
2018-12-28T16:11:18.344Z,102194.05
2018-12-28T16:14:25.697Z,102196.61
2018-12-28T16:17:32.922Z,102189.37
2018-12-28T16:20:40.159Z,102189.81
2018-12-28T16:23:47.658Z,102191.52
2018-12-28T16:26:54.802Z,102193.23
2018-12-28T16:30:02.046Z,102187.27
2018-12-28T16:33:09.285Z,102190.67
2018-12-28T16:36:16.422Z,102192.37
2018-12-28T16:39:25.089Z,102191.11
2018-12-28T16:42:32.324Z,102201.75
2018-12-28T16:45:39.457Z,102194.09
2018-12-28T16:48:46.691Z,102184.30
2018-12-28T16:51:53.887Z,102191.11
2018-12-28T16:55:01.030Z,102197.48
2018-12-28T16:58:08.281Z,102194.94
2018-12-28T17:01:15.462Z,102200.02
2018-12-28T17:04:22.702Z,102196.20
2018-12-28T17:07:30.030Z,102205.98
2018-12-28T17:10:37.164Z,102202.15
2018-12-28T17:13:44.497Z,102209.36
2018-12-28T17:16:51.908Z,102208.95
2018-12-28T17:19:59.150Z,102215.31
2018-12-28T17:23:06.382Z,102214.91
2018-12-28T17:26:13.613Z,102211.06
2018-12-28T17:29:20.813Z,102208.51
2018-12-28T17:32:28.049Z,102208.51
2018-12-28T17:35:35.322Z,102217.45
2018-12-28T17:38:42.576Z,102214.47
2018-12-28T17:41:49.809Z,102220.42
2018-12-28T17:44:57.133Z,102219.97
2018-12-28T17:48:04.329Z,102220.41
2018-12-28T17:51:21.145Z,102221.62
2018-12-28T17:54:28.600Z,102220.38
2018-12-28T17:57:45.706Z,102223.73
2018-12-28T18:00:52.947Z,102232.29
2018-12-28T18:04:00.082Z,102230.15
2018-12-28T18:07:17.094Z,102229.72
2018-12-28T18:10:33.987Z,102229.70
2018-12-28T18:13:50.882Z,102224.59
2018-12-28T18:16:58.121Z,102227.58
2018-12-28T18:20:05.815Z,102226.30
2018-12-28T18:23:22.185Z,102227.13
2018-12-28T18:26:29.430Z,102230.98
2018-12-28T18:29:36.949Z,102228.86
2018-12-28T18:32:53.517Z,102230.11
2018-12-28T18:36:00.649Z,102235.66
2018-12-28T18:39:08.164Z,102233.10
2018-12-28T18:42:24.922Z,102229.27
2018-12-28T18:45:41.777Z,102230.95
2018-12-28T18:48:48.907Z,102235.66
2018-12-28T18:51:56.063Z,102237.78
2018-12-28T18:55:03.265Z,102237.36
2018-12-28T18:58:11.002Z,102244.16
2018-12-28T19:01:27.743Z,102236.91
2018-12-28T19:04:44.554Z,102231.82
2018-12-28T19:07:51.733Z,102242.47
2018-12-28T19:10:58.850Z,102236.09
2018-12-28T19:14:05.977Z,102236.93
2018-12-28T19:17:13.207Z,102233.97
2018-12-28T19:20:20.585Z,102230.56
2018-12-28T19:23:27.822Z,102228.01
2018-12-28T19:26:34.955Z,102228.01
2018-12-28T19:29:52.106Z,102224.59
2018-12-28T19:33:14.991Z,102230.97
2018-12-28T19:36:31.854Z,102222.03
2018-12-28T19:39:39.307Z,102227.59
2018-12-28T19:42:56.450Z,102228.85
2018-12-28T19:46:12.846Z,102240.33
2018-12-28T19:49:20.069Z,102243.77
2018-12-28T19:52:27.377Z,102243.79
2018-12-28T19:55:44.156Z,102246.30
2018-12-28T19:58:51.457Z,102253.14
2018-12-28T20:01:58.741Z,102253.57
2018-12-28T20:05:21.510Z,102243.77
2018-12-28T20:08:38.438Z,102253.53
2018-12-28T20:11:45.572Z,102255.28
2018-12-28T20:14:52.969Z,102253.59
2018-12-28T20:18:00.104Z,102258.70
2018-12-28T20:21:19.525Z,102255.25
2018-12-28T20:24:36.442Z,102248.86
2018-12-28T20:27:53.324Z,102250.14
2018-12-28T20:31:00.576Z,102252.75
2018-12-28T20:34:17.478Z,102257.80
2018-12-28T20:37:24.709Z,102259.56
2018-12-28T20:40:31.941Z,102259.56
2018-12-28T20:43:39.511Z,102258.30
2018-12-28T20:46:56.165Z,102261.22
2018-12-28T20:50:13.150Z,102254.42
2018-12-28T20:53:29.847Z,102260.39
2018-12-28T20:56:36.980Z,102265.12
2018-12-28T20:59:44.107Z,102260.42
2018-12-28T21:02:51.339Z,102265.14
2018-12-28T21:05:58.477Z,102263.43
2018-12-28T21:09:06.474Z,102265.57
2018-12-28T21:12:13.643Z,102266.41
2018-12-28T21:15:20.957Z,102275.78
2018-12-28T21:18:28.113Z,102273.64
2018-12-28T21:21:35.244Z,102275.78
2018-12-28T21:24:42.657Z,102270.67
2018-12-28T21:27:49.956Z,102276.61
2018-12-28T21:30:57.190Z,102273.66
2018-12-28T21:34:04.494Z,102271.51
2018-12-28T21:37:11.857Z,102275.35
2018-12-28T21:40:18.985Z,102263.43
2018-12-28T21:43:26.259Z,102271.09
2018-12-28T21:46:36.117Z,102268.98
2018-12-28T21:49:43.363Z,102270.27
2018-12-28T21:52:50.605Z,102261.33
2018-12-28T21:55:57.731Z,102264.30
2018-12-28T21:59:05.042Z,102265.16
2018-12-28T22:02:11.203Z,102264.31
2018-12-28T22:05:18.569Z,102263.87
2018-12-28T22:08:25.759Z,102265.60
2018-12-28T22:11:31.276Z,102265.17
2018-12-28T22:14:38.485Z,102259.63
2018-12-28T22:17:45.818Z,102261.34
2018-12-28T22:20:51.918Z,102260.49
2018-12-28T22:24:08.525Z,102258.32
2018-12-28T22:27:25.317Z,102253.64
2018-12-28T22:30:32.459Z,102248.16
2018-12-28T22:33:39.691Z,102253.69
2018-12-28T22:36:46.835Z,102249.45
2018-12-28T22:39:54.094Z,102250.73
2018-12-28T22:43:01.302Z,102252.87
2018-12-28T22:46:08.546Z,102257.97
2018-12-28T22:49:15.226Z,102255.85
2018-12-28T22:52:22.608Z,102249.47
2018-12-28T22:55:29.946Z,102251.61
2018-12-28T22:58:37.097Z,102250.76
2018-12-28T23:01:44.315Z,102259.25
2018-12-28T23:04:51.654Z,102257.97
2018-12-28T23:07:58.889Z,102255.85
2018-12-28T23:11:06.206Z,102255.85
2018-12-28T23:14:23.051Z,102254.14
2018-12-28T23:17:30.451Z,102250.34
2018-12-28T23:20:53.179Z,102257.14
2018-12-28T23:24:00.533Z,102263.55
2018-12-28T23:27:17.313Z,102259.25
2018-12-28T23:30:34.379Z,102256.71
2018-12-28T23:33:41.517Z,102253.78
2018-12-28T23:36:58.653Z,102256.30
2018-12-28T23:40:05.935Z,102262.72
2018-12-28T23:43:22.740Z,102259.28
2018-12-28T23:46:39.664Z,102253.33
2018-12-28T23:49:56.513Z,102252.48
2018-12-28T23:53:03.753Z,102247.84
2018-12-28T23:56:20.637Z,102236.75
2018-12-28T23:59:27.865Z,102241.91
